Time;durP1;ratioP1;P1;durP2;ratioP2;P2;SDS_P1;SDS_P2;PMS_P1;PMS_P2;Temp;Humidity;BMP_temperature;BMP_pressure;BME280_temperature;BME280_humidity;BME280_pressure;Samples;Min_cycle;Max_cycle;Signal;HPM_P1;HPM_P2
2023/07/31 00:01:50;;;;;;;0.10;0.10;;;13.40;60.80;;;;;;5052514;28;20203;-58
2023/07/31 00:04:23;;;;;;;0.10;0.10;;;13.40;60.80;;;;;;5051814;28;20195;-59
2023/07/31 00:06:53;;;;;;;0.10;0.10;;;13.40;60.80;;;;;;5051632;28;20191;-59
2023/07/31 00:09:24;;;;;;;0.10;0.10;;;13.50;60.80;;;;;;5051708;28;20253;-54
2023/07/31 00:11:55;;;;;;;0.10;0.10;;;13.50;60.80;;;;;;5051520;28;20195;-60
2023/07/31 00:14:25;;;;;;;0.10;0.10;;;13.60;60.80;;;;;;5051518;28;20615;-60
2023/07/31 00:16:56;;;;;;;0.10;0.10;;;13.60;60.80;;;;;;5051186;28;20593;-56
2023/07/31 00:19:28;;;;;;;0.10;0.10;;;13.60;60.80;;;;;;5050628;28;20712;-61
2023/07/31 00:21:59;;;;;;;0.20;0.20;;;13.60;60.70;;;;;;5051483;28;20592;-58
2023/07/31 00:24:30;;;;;;;0.17;0.17;;;13.70;60.70;;;;;;5051287;28;20203;-58
2023/07/31 00:27:00;;;;;;;0.13;0.13;;;13.70;60.60;;;;;;5051788;28;20203;-55
2023/07/31 00:29:31;;;;;;;0.10;0.10;;;13.70;60.60;;;;;;5051793;28;20202;-55
2023/07/31 00:32:02;;;;;;;0.10;0.10;;;13.80;60.70;;;;;;5051670;28;20195;-61
2023/07/31 00:34:34;;;;;;;0.10;0.10;;;13.80;60.60;;;;;;5051148;28;20203;-56
2023/07/31 00:37:05;;;;;;;0.10;0.10;;;13.80;60.70;;;;;;5047509;28;20252;-59
2023/07/31 00:39:36;;;;;;;0.10;0.10;;;13.90;60.80;;;;;;5053691;28;20202;-56
2023/07/31 00:42:07;;;;;;;0.10;0.10;;;13.90;60.90;;;;;;5065897;28;20194;-55
2023/07/31 00:44:38;;;;;;;0.10;0.10;;;13.90;60.90;;;;;;5074006;28;20218;-53
2023/07/31 00:47:09;;;;;;;0.10;0.10;;;14.00;60.90;;;;;;5035269;28;20192;-56
2023/07/31 00:49:41;;;;;;;0.10;0.10;;;14.00;60.80;;;;;;5034766;28;20219;-58
2023/07/31 00:52:13;;;;;;;0.10;0.10;;;14.10;60.80;;;;;;5034739;28;20655;-56
2023/07/31 00:54:44;;;;;;;0.10;0.10;;;14.10;60.70;;;;;;5052937;28;20219;-57
2023/07/31 00:57:14;;;;;;;0.10;0.10;;;14.10;60.80;;;;;;5034782;28;20222;-55
2023/07/31 00:59:46;;;;;;;0.10;0.10;;;14.20;60.90;;;;;;5034376;28;20196;-58
2023/07/31 01:02:17;;;;;;;0.10;0.10;;;14.20;60.90;;;;;;5034860;28;20214;-57
2023/07/31 01:04:50;;;;;;;0.10;0.10;;;14.30;60.90;;;;;;5053733;28;20242;-53
2023/07/31 01:07:42;;;;;;;0.10;0.10;;;14.30;60.80;;;;;;5035149;28;20212;-57
2023/07/31 01:10:18;;;;;;;0.10;0.10;;;14.30;60.80;;;;;;5042955;28;20192;-58
2023/07/31 01:12:50;;;;;;;0.10;0.10;;;14.40;60.70;;;;;;5054210;28;20671;-58
2023/07/31 01:15:21;;;;;;;0.10;0.10;;;14.40;60.60;;;;;;5053225;28;20207;-55
2023/07/31 01:17:52;;;;;;;0.17;0.17;;;14.50;60.70;;;;;;5054428;28;20229;-60
2023/07/31 01:20:26;;;;;;;0.10;0.10;;;14.50;60.70;;;;;;5054227;28;20195;-55
2023/07/31 01:23:34;;;;;;;0.10;0.10;;;14.50;60.60;;;;;;5053551;28;20198;-56
2023/07/31 01:26:14;;;;;;;0.10;0.10;;;14.60;60.70;;;;;;5042879;28;20215;-55
2023/07/31 01:28:56;;;;;;;0.10;0.10;;;14.60;60.60;;;;;;5053564;28;20238;-54
2023/07/31 01:31:28;;;;;;;0.10;0.10;;;14.60;60.50;;;;;;5058313;28;20567;-60
2023/07/31 01:34:00;;;;;;;0.10;0.10;;;14.70;60.50;;;;;;5052984;28;20589;-60
2023/07/31 01:36:32;;;;;;;0.10;0.10;;;14.70;60.60;;;;;;5053853;28;20276;-54
2023/07/31 01:39:03;;;;;;;0.00;0.00;;;14.80;60.50;;;;;;5053743;28;20647;-57
2023/07/31 01:41:36;;;;;;;0.10;0.10;;;14.80;60.40;;;;;;5053453;28;20188;-55
2023/07/31 01:44:07;;;;;;;0.10;0.10;;;14.90;60.50;;;;;;5053441;28;20203;-59
2023/07/31 01:46:37;;;;;;;0.10;0.10;;;14.90;60.40;;;;;;5052836;28;20219;-59
2023/07/31 01:49:09;;;;;;;0.10;0.10;;;14.90;60.30;;;;;;5054215;28;20195;-55
2023/07/31 01:51:40;;;;;;;0.10;0.10;;;14.90;60.30;;;;;;5053082;28;20187;-56
2023/07/31 01:54:11;;;;;;;0.10;0.10;;;15.00;60.30;;;;;;5054086;28;20219;-56
2023/07/31 01:56:43;;;;;;;0.10;0.10;;;15.00;60.20;;;;;;5053615;28;20223;-60
2023/07/31 01:59:14;;;;;;;0.10;0.10;;;15.00;60.10;;;;;;5054172;28;20195;-52
2023/07/31 02:01:44;;;;;;;0.10;0.10;;;15.10;60.20;;;;;;5052947;28;20196;-57
2023/07/31 02:04:15;;;;;;;0.10;0.10;;;15.10;60.20;;;;;;5053496;28;20199;-57
2023/07/31 02:06:45;;;;;;;0.10;0.10;;;15.10;60.20;;;;;;5052995;28;20199;-56
2023/07/31 02:09:16;;;;;;;0.10;0.10;;;15.20;60.20;;;;;;5053976;28;20199;-52
2023/07/31 02:11:48;;;;;;;0.10;0.10;;;15.20;60.10;;;;;;5053017;28;20214;-59
2023/07/31 02:14:19;;;;;;;0.10;0.10;;;15.30;60.20;;;;;;5053072;28;20261;-51
2023/07/31 02:16:50;;;;;;;0.10;0.10;;;15.30;60.10;;;;;;5052930;28;20219;-53
2023/07/31 02:19:20;;;;;;;0.10;0.10;;;15.40;60.10;;;;;;5053100;28;20203;-51
2023/07/31 02:21:51;;;;;;;0.10;0.10;;;15.40;60.10;;;;;;5058393;28;20187;-50
2023/07/31 02:24:21;;;;;;;0.10;0.10;;;15.40;60.10;;;;;;5058724;28;20695;-51
2023/07/31 02:26:54;;;;;;;0.00;0.00;;;15.40;60.10;;;;;;5053579;28;20208;-50
2023/07/31 02:29:25;;;;;;;0.10;0.10;;;15.50;60.00;;;;;;5053306;28;20203;-53
2023/07/31 02:31:55;;;;;;;0.10;0.10;;;15.50;60.10;;;;;;5052986;28;20203;-61
2023/07/31 02:34:26;;;;;;;0.08;0.08;;;15.50;60.00;;;;;;5052560;28;20214;-54
2023/07/31 02:36:56;;;;;;;0.10;0.10;;;15.60;60.00;;;;;;5052950;28;20814;-57
2023/07/31 02:39:27;;;;;;;0.10;0.10;;;15.60;59.90;;;;;;5053067;28;20191;-53
2023/07/31 02:42:00;;;;;;;0.10;0.10;;;15.70;60.00;;;;;;5053305;28;20203;-51
2023/07/31 02:44:30;;;;;;;0.10;0.10;;;15.70;59.90;;;;;;5053325;28;20195;-56
2023/07/31 02:47:01;;;;;;;0.08;0.08;;;15.80;60.00;;;;;;5053317;28;20245;-58
2023/07/31 02:49:32;;;;;;;0.10;0.10;;;15.80;59.90;;;;;;5053431;28;20195;-57
2023/07/31 02:52:02;;;;;;;0.10;0.10;;;15.80;59.90;;;;;;5053013;28;20567;-55
2023/07/31 02:54:33;;;;;;;0.10;0.10;;;15.90;59.90;;;;;;5053001;28;20200;-55
2023/07/31 02:57:06;;;;;;;0.10;0.10;;;15.90;59.90;;;;;;5052755;28;20219;-55
2023/07/31 02:59:36;;;;;;;0.08;0.08;;;15.90;59.80;;;;;;5052570;28;20200;-56
2023/07/31 03:02:07;;;;;;;0.10;0.10;;;16.00;59.80;;;;;;5052165;28;20202;-52
2023/07/31 03:04:38;;;;;;;0.10;0.10;;;16.00;59.80;;;;;;5051966;28;20627;-52
2023/07/31 03:07:09;;;;;;;0.10;0.10;;;16.00;59.70;;;;;;5052386;28;20191;-52
2023/07/31 03:09:39;;;;;;;0.10;0.10;;;16.10;59.70;;;;;;5052409;28;20199;-55
2023/07/31 03:12:12;;;;;;;0.10;0.10;;;16.10;59.70;;;;;;5052684;28;20647;-58
2023/07/31 03:14:43;;;;;;;0.10;0.10;;;16.10;59.60;;;;;;5052569;28;20222;-57
2023/07/31 03:17:14;;;;;;;0.10;0.10;;;16.20;59.60;;;;;;5053101;28;20222;-56
2023/07/31 03:19:45;;;;;;;0.10;0.10;;;16.20;59.50;;;;;;5052464;28;20199;-57
2023/07/31 03:22:15;;;;;;;0.10;0.10;;;16.20;59.50;;;;;;5052801;28;20195;-53
2023/07/31 03:24:59;;;;;;;0.10;0.10;;;16.20;59.40;;;;;;5129788;27;20576;-55
2023/07/31 03:27:29;;;;;;;0.10;0.10;;;16.30;59.50;;;;;;5109678;28;20195;-53
2023/07/31 03:30:00;;;;;;;0.10;0.10;;;16.30;59.40;;;;;;5109379;28;20197;-54
2023/07/31 03:32:31;;;;;;;0.00;0.00;;;16.30;59.40;;;;;;5109840;28;20660;-53
2023/07/31 03:35:02;;;;;;;0.10;0.10;;;16.30;59.80;;;;;;5099071;28;20266;-56
2023/07/31 03:37:32;;;;;;;0.10;0.10;;;16.40;59.30;;;;;;5097279;28;20209;-56
2023/07/31 03:40:05;;;;;;;0.10;0.10;;;16.40;59.20;;;;;;5098767;28;20673;-52
2023/07/31 03:42:36;;;;;;;0.10;0.10;;;16.40;59.20;;;;;;5088641;28;20296;-54
2023/07/31 03:45:07;;;;;;;0.03;0.03;;;16.40;59.20;;;;;;5106827;28;20218;-55
2023/07/31 03:47:37;;;;;;;0.10;0.10;;;16.40;59.10;;;;;;5088095;28;20679;-60
2023/07/31 03:50:09;;;;;;;0.10;0.10;;;16.50;59.10;;;;;;5106319;28;20194;-58
2023/07/31 03:52:40;;;;;;;0.10;0.10;;;16.50;59.10;;;;;;5098422;28;20503;-57
2023/07/31 03:55:13;;;;;;;0.10;0.10;;;16.50;59.00;;;;;;5108637;28;20220;-59
2023/07/31 03:57:43;;;;;;;0.10;0.10;;;16.50;58.90;;;;;;5108326;28;20194;-50
2023/07/31 04:00:15;;;;;;;0.00;0.00;;;16.50;58.90;;;;;;5108516;28;20201;-50
2023/07/31 04:02:45;;;;;;;0.00;0.00;;;16.50;58.80;;;;;;5108196;28;20259;-54
2023/07/31 04:05:16;;;;;;;0.10;0.10;;;16.50;58.70;;;;;;5107634;28;20205;-58
2023/07/31 04:07:47;;;;;;;0.10;0.10;;;16.50;58.70;;;;;;5108557;28;20201;-57
2023/07/31 04:10:19;;;;;;;0.10;0.10;;;16.60;58.70;;;;;;5108191;28;20198;-59
2023/07/31 04:12:50;;;;;;;0.10;0.10;;;16.60;58.70;;;;;;5108267;28;20193;-60
2023/07/31 04:15:20;;;;;;;0.10;0.10;;;16.60;58.60;;;;;;5107986;28;20213;-52
2023/07/31 04:17:51;;;;;;;0.10;0.10;;;16.60;58.50;;;;;;5107983;28;20201;-56
2023/07/31 04:20:22;;;;;;;0.10;0.10;;;16.60;58.30;;;;;;5108029;28;20200;-51
2023/07/31 04:22:53;;;;;;;0.03;0.03;;;16.70;58.20;;;;;;5104380;28;20674;-52
2023/07/31 04:25:25;;;;;;;0.10;0.10;;;16.70;58.00;;;;;;5088281;28;20618;-54
2023/07/31 04:27:56;;;;;;;0.10;0.10;;;16.70;57.90;;;;;;5087670;28;20654;-52
2023/07/31 04:30:27;;;;;;;0.08;0.08;;;16.70;57.90;;;;;;5106024;28;20190;-54
2023/07/31 04:32:57;;;;;;;0.10;0.10;;;16.80;57.90;;;;;;5108086;28;20279;-49
2023/07/31 04:35:28;;;;;;;0.10;0.10;;;16.80;58.40;;;;;;5098495;28;20775;-58
2023/07/31 04:37:59;;;;;;;0.10;0.10;;;16.80;58.40;;;;;;5094153;28;20246;-51
2023/07/31 04:40:31;;;;;;;0.03;0.03;;;16.90;57.80;;;;;;5094648;28;20194;-55
2023/07/31 04:43:02;;;;;;;0.10;0.10;;;16.90;57.70;;;;;;5093642;28;20194;-57
2023/07/31 04:45:32;;;;;;;0.10;0.10;;;16.90;57.70;;;;;;5094181;28;20259;-57
2023/07/31 04:48:03;;;;;;;0.00;0.00;;;16.90;57.60;;;;;;5101351;28;20199;-56
2023/07/31 04:50:34;;;;;;;0.10;0.10;;;17.00;57.60;;;;;;5114811;28;20664;-56
2023/07/31 04:53:04;;;;;;;0.10;0.10;;;17.00;57.60;;;;;;5106326;27;20198;-57
2023/07/31 04:55:37;;;;;;;0.10;0.10;;;17.00;57.70;;;;;;5074632;28;20219;-59
2023/07/31 04:58:07;;;;;;;0.10;0.10;;;17.00;57.70;;;;;;5073628;28;20198;-58
2023/07/31 05:00:38;;;;;;;0.05;0.05;;;17.10;57.70;;;;;;5092370;28;20205;-61
2023/07/31 05:03:10;;;;;;;0.10;0.10;;;17.10;57.80;;;;;;5093907;28;20201;-55
2023/07/31 05:05:41;;;;;;;0.08;0.08;;;17.10;57.80;;;;;;5094406;28;20216;-57
2023/07/31 05:08:11;;;;;;;0.10;0.10;;;17.10;57.80;;;;;;5093359;28;20213;-55
2023/07/31 05:10:44;;;;;;;0.10;0.10;;;17.10;57.60;;;;;;5093185;28;20561;-56
2023/07/31 05:13:14;;;;;;;0.00;0.00;;;17.10;57.50;;;;;;5093951;28;20195;-56
2023/07/31 05:15:45;;;;;;;0.00;0.00;;;17.10;57.40;;;;;;5094090;28;20210;-58
2023/07/31 05:18:16;;;;;;;0.00;0.00;;;17.10;57.40;;;;;;5094148;28;20202;-61
2023/07/31 05:20:46;;;;;;;0.03;0.03;;;17.10;57.40;;;;;;5094265;28;20201;-61
2023/07/31 05:23:17;;;;;;;0.10;0.10;;;17.10;57.40;;;;;;5087171;28;20576;-54
2023/07/31 05:25:49;;;;;;;0.08;0.08;;;17.10;57.40;;;;;;5076226;28;20217;-56
2023/07/31 05:28:20;;;;;;;0.10;0.10;;;17.10;57.40;;;;;;5093485;28;20248;-53
2023/07/31 05:30:51;;;;;;;0.00;0.00;;;17.20;57.40;;;;;;5093464;28;20559;-57
2023/07/31 05:33:21;;;;;;;0.10;0.10;;;17.20;57.40;;;;;;5093439;28;20198;-59
2023/07/31 05:35:52;;;;;;;0.10;0.10;;;17.20;57.40;;;;;;5093510;28;20263;-55
2023/07/31 05:38:23;;;;;;;0.08;0.08;;;17.20;57.40;;;;;;5093681;28;20693;-53
2023/07/31 05:40:55;;;;;;;0.10;0.10;;;17.20;57.50;;;;;;5091630;28;20233;-59
2023/07/31 05:43:26;;;;;;;0.10;0.10;;;17.20;57.50;;;;;;5072750;28;20198;-57
2023/07/31 05:45:56;;;;;;;0.10;0.10;;;17.20;57.50;;;;;;5072360;28;20753;-57
2023/07/31 05:48:27;;;;;;;0.05;0.05;;;17.20;57.50;;;;;;5072551;28;20199;-59
2023/07/31 05:50:58;;;;;;;0.10;0.10;;;17.20;57.40;;;;;;5072440;28;20209;-53
2023/07/31 05:53:28;;;;;;;0.10;0.10;;;17.20;57.40;;;;;;5073544;28;20210;-58
2023/07/31 05:56:01;;;;;;;0.00;0.00;;;17.20;57.40;;;;;;5072492;28;20223;-55
2023/07/31 05:58:31;;;;;;;0.03;0.03;;;17.10;57.30;;;;;;5073375;28;20203;-58
2023/07/31 06:01:02;;;;;;;0.10;0.10;;;17.10;57.20;;;;;;5089839;28;20213;-61
2023/07/31 06:03:33;;;;;;;0.00;0.00;;;17.10;57.10;;;;;;5092901;28;20648;-55
2023/07/31 06:06:03;;;;;;;0.15;0.15;;;17.10;56.90;;;;;;5092469;28;20214;-57
2023/07/31 06:08:34;;;;;;;0.10;0.10;;;17.10;56.90;;;;;;5093078;28;20190;-59
2023/07/31 06:11:07;;;;;;;0.10;0.10;;;17.10;56.80;;;;;;5092618;28;20194;-56
2023/07/31 06:13:37;;;;;;;0.10;0.10;;;17.10;57.40;;;;;;5092893;28;20667;-58
2023/07/31 06:16:08;;;;;;;0.10;0.10;;;17.10;56.80;;;;;;5092449;28;20221;-54
2023/07/31 06:18:39;;;;;;;0.10;0.10;;;17.10;56.80;;;;;;5092434;28;20537;-59
2023/07/31 06:21:09;;;;;;;0.10;0.10;;;17.10;56.80;;;;;;5092524;28;20201;-54
2023/07/31 06:23:40;;;;;;;0.00;0.00;;;17.10;56.70;;;;;;5076113;28;20191;-56
2023/07/31 06:26:12;;;;;;;0.10;0.10;;;17.10;56.60;;;;;;5072073;28;20720;-57
2023/07/31 06:28:44;;;;;;;0.10;0.10;;;17.10;56.60;;;;;;5081843;28;20538;-54
2023/07/31 06:31:14;;;;;;;0.00;0.00;;;17.10;56.60;;;;;;5074973;28;20194;-54
2023/07/31 06:33:45;;;;;;;0.08;0.08;;;17.10;56.60;;;;;;5091915;28;20197;-56
2023/07/31 06:36:15;;;;;;;0.10;0.10;;;17.10;56.60;;;;;;5091941;28;20631;-57
2023/07/31 06:38:46;;;;;;;0.10;0.10;;;17.10;56.60;;;;;;5092038;28;20209;-56
2023/07/31 06:41:19;;;;;;;0.00;0.00;;;17.10;56.60;;;;;;5082184;28;20654;-57
2023/07/31 06:43:49;;;;;;;0.00;0.00;;;17.10;56.60;;;;;;5104141;28;20687;-55
2023/07/31 06:46:20;;;;;;;0.10;0.10;;;17.10;56.70;;;;;;5111858;28;20214;-60
2023/07/31 06:48:50;;;;;;;0.00;0.00;;;17.10;56.60;;;;;;5111539;28;20189;-55
2023/07/31 06:51:21;;;;;;;0.10;0.10;;;17.10;56.50;;;;;;5111712;28;21330;-54
2023/07/31 06:53:52;;;;;;;0.10;0.10;;;17.00;56.40;;;;;;5083175;28;20209;-56
2023/07/31 06:56:26;;;;;;;0.00;0.00;;;17.00;56.40;;;;;;5070904;28;20226;-53
2023/07/31 06:58:56;;;;;;;0.10;0.10;;;17.10;56.40;;;;;;5087343;28;20186;-51
2023/07/31 07:01:27;;;;;;;0.05;0.05;;;17.10;56.50;;;;;;5091346;28;20210;-54
2023/07/31 07:03:58;;;;;;;0.10;0.10;;;17.10;56.50;;;;;;5090738;28;20220;-55
2023/07/31 07:06:28;;;;;;;0.10;0.10;;;17.10;56.40;;;;;;5091390;28;20688;-55
2023/07/31 07:08:59;;;;;;;0.10;0.10;;;17.00;56.30;;;;;;5090734;28;20251;-55
2023/07/31 07:11:31;;;;;;;0.10;0.10;;;17.00;56.30;;;;;;5090819;28;20202;-55
2023/07/31 07:14:02;;;;;;;0.05;0.05;;;17.00;56.30;;;;;;5107317;28;20185;-55
2023/07/31 07:16:33;;;;;;;0.10;0.10;;;17.10;56.30;;;;;;5112040;28;20245;-52
2023/07/31 07:19:03;;;;;;;0.10;0.10;;;17.00;56.20;;;;;;5091531;28;20201;-60
2023/07/31 07:21:34;;;;;;;0.10;0.10;;;17.00;56.30;;;;;;5090700;28;20202;-55
2023/07/31 07:24:04;;;;;;;0.10;0.10;;;17.00;56.40;;;;;;5078179;28;20222;-52
2023/07/31 07:26:37;;;;;;;0.00;0.00;;;17.00;56.40;;;;;;5078748;28;20213;-56
2023/07/31 07:29:08;;;;;;;0.10;0.10;;;17.00;56.50;;;;;;5107432;28;20211;-61
2023/07/31 07:31:38;;;;;;;0.10;0.10;;;17.00;56.50;;;;;;5111089;28;20197;-54
2023/07/31 07:34:09;;;;;;;0.10;0.10;;;17.00;56.40;;;;;;5110390;28;20221;-53
2023/07/31 07:36:39;;;;;;;0.10;0.10;;;17.00;56.50;;;;;;5110988;28;20225;-54
2023/07/31 07:39:10;;;;;;;0.10;0.10;;;17.00;56.40;;;;;;5111480;28;20196;-56
2023/07/31 07:41:43;;;;;;;0.08;0.08;;;17.00;56.90;;;;;;5110638;28;20201;-53
2023/07/31 07:44:14;;;;;;;0.03;0.03;;;17.00;56.30;;;;;;5110125;28;20567;-52
2023/07/31 07:46:44;;;;;;;0.00;0.00;;;17.00;56.30;;;;;;5081370;28;20195;-62
2023/07/31 07:49:15;;;;;;;0.10;0.10;;;17.00;56.30;;;;;;5071109;28;20202;-59
2023/07/31 07:51:45;;;;;;;0.10;0.10;;;16.90;56.30;;;;;;5070971;28;20199;-52
2023/07/31 07:54:16;;;;;;;0.20;0.20;;;16.90;56.30;;;;;;5085588;28;20198;-57
2023/07/31 07:56:49;;;;;;;0.10;0.10;;;16.90;56.30;;;;;;5090751;28;20205;-61
2023/07/31 07:59:20;;;;;;;0.10;0.10;;;16.90;56.30;;;;;;5091093;28;20191;-59
2023/07/31 08:01:50;;;;;;;0.00;0.00;;;16.90;56.30;;;;;;5091041;28;20676;-65
2023/07/31 08:04:21;;;;;;;0.10;0.10;;;16.90;56.30;;;;;;5091195;28;20222;-54
2023/07/31 08:06:52;;;;;;;0.10;0.10;;;16.90;56.40;;;;;;5091410;28;20205;-63
2023/07/31 08:09:22;;;;;;;0.10;0.10;;;16.90;56.30;;;;;;5091206;28;20217;-56
2023/07/31 08:11:57;;;;;;;0.10;0.10;;;16.90;56.30;;;;;;5094910;28;20201;-54
2023/07/31 08:14:27;;;;;;;0.10;0.10;;;16.90;56.30;;;;;;5094617;28;20205;-57
2023/07/31 08:16:58;;;;;;;0.10;0.10;;;16.90;56.30;;;;;;5094687;28;20198;-49
2023/07/31 08:19:28;;;;;;;0.10;0.10;;;16.90;56.30;;;;;;5095134;28;20208;-52
2023/07/31 08:21:59;;;;;;;0.05;0.05;;;16.90;56.30;;;;;;5094997;28;20206;-54
2023/07/31 08:24:30;;;;;;;0.00;0.00;;;16.90;56.30;;;;;;5094407;28;20696;-53
2023/07/31 08:27:02;;;;;;;0.10;0.10;;;16.90;56.00;;;;;;5095140;28;20202;-57
2023/07/31 08:29:33;;;;;;;0.10;0.10;;;16.90;55.70;;;;;;5086990;28;20233;-63
2023/07/31 08:32:03;;;;;;;0.08;0.08;;;16.90;55.60;;;;;;5074511;28;20227;-56
2023/07/31 08:34:34;;;;;;;0.00;0.00;;;16.90;55.40;;;;;;5074375;28;20571;-51
2023/07/31 08:37:05;;;;;;;0.10;0.10;;;16.80;55.30;;;;;;5074390;28;20190;-56
2023/07/31 08:39:35;;;;;;;0.00;0.00;;;16.80;55.50;;;;;;5073673;28;20198;-53
2023/07/31 08:42:11;;;;;;;0.10;0.10;;;16.80;55.30;;;;;;5074017;28;20191;-53
2023/07/31 08:44:42;;;;;;;0.10;0.10;;;16.80;55.30;;;;;;5073662;28;20305;-57
2023/07/31 08:47:14;;;;;;;0.10;0.10;;;16.80;55.20;;;;;;5072923;28;20264;-61
2023/07/31 08:49:46;;;;;;;0.10;0.10;;;16.80;55.20;;;;;;5073647;28;20202;-59
2023/07/31 08:52:17;;;;;;;0.10;0.10;;;16.80;55.20;;;;;;5073089;28;20673;-55
2023/07/31 08:54:47;;;;;;;0.10;0.10;;;16.80;55.30;;;;;;5093395;28;20218;-55
2023/07/31 08:57:20;;;;;;;0.00;0.00;;;16.80;55.40;;;;;;5094402;28;20205;-52
2023/07/31 08:59:51;;;;;;;0.10;0.10;;;16.80;55.50;;;;;;5094169;28;20645;-54
2023/07/31 09:02:23;;;;;;;0.10;0.10;;;16.80;55.50;;;;;;5093789;28;20193;-58
2023/07/31 09:04:54;;;;;;;0.10;0.10;;;16.80;55.50;;;;;;5094095;28;20231;-51
2023/07/31 09:07:26;;;;;;;0.10;0.10;;;16.80;55.50;;;;;;5094127;28;20202;-56
2023/07/31 09:09:57;;;;;;;0.10;0.10;;;16.80;55.50;;;;;;5094055;28;20671;-53
2023/07/31 09:12:30;;;;;;;0.03;0.03;;;16.80;55.50;;;;;;5094510;28;20190;-60
2023/07/31 09:15:01;;;;;;;0.10;0.10;;;16.80;55.50;;;;;;5094506;28;20214;-61
2023/07/31 09:17:36;;;;;;;0.10;0.10;;;16.80;55.60;;;;;;5087931;28;20202;-52
2023/07/31 09:20:18;;;;;;;0.08;0.08;;;16.70;55.60;;;;;;5078434;28;20645;-51
2023/07/31 09:22:49;;;;;;;0.10;0.10;;;16.70;55.60;;;;;;5076679;28;20256;-56
2023/07/31 09:25:21;;;;;;;0.00;0.00;;;16.80;55.60;;;;;;5090198;28;20265;-52
2023/07/31 09:27:55;;;;;;;0.10;0.10;;;16.70;55.60;;;;;;5093655;28;20193;-60
2023/07/31 09:30:26;;;;;;;0.10;0.10;;;16.70;55.60;;;;;;5079271;28;20203;-59
2023/07/31 09:33:06;;;;;;;0.03;0.03;;;16.70;55.60;;;;;;5092277;28;20201;-63
2023/07/31 09:35:37;;;;;;;0.10;0.10;;;16.80;55.60;;;;;;5111302;28;20217;-62
2023/07/31 09:38:09;;;;;;;0.05;0.05;;;16.80;55.60;;;;;;5093403;28;20534;-54
2023/07/31 09:40:41;;;;;;;0.10;0.10;;;16.80;55.70;;;;;;5091961;28;20202;-50
2023/07/31 09:43:15;;;;;;;0.10;0.10;;;16.80;55.70;;;;;;5081724;28;20209;-56
2023/07/31 09:45:46;;;;;;;0.00;0.00;;;16.80;55.70;;;;;;5074439;28;20277;-52
2023/07/31 09:48:18;;;;;;;0.10;0.10;;;16.70;55.70;;;;;;5080560;28;20198;-53
2023/07/31 09:50:50;;;;;;;0.10;0.10;;;16.70;55.70;;;;;;5092302;28;20653;-62
2023/07/31 09:53:21;;;;;;;0.10;0.10;;;16.70;55.70;;;;;;5086198;28;20978;-52
2023/07/31 09:55:52;;;;;;;0.10;0.10;;;16.80;55.80;;;;;;5071535;28;20226;-55
2023/07/31 09:58:24;;;;;;;0.03;0.03;;;16.80;56.40;;;;;;5085861;28;20194;-54
2023/07/31 10:00:55;;;;;;;0.10;0.10;;;16.70;55.70;;;;;;5092695;28;20194;-53
2023/07/31 10:03:26;;;;;;;0.10;0.10;;;16.70;55.70;;;;;;5093004;28;20405;-55
2023/07/31 10:05:59;;;;;;;0.10;0.10;;;16.80;55.80;;;;;;5091893;28;20231;-51
2023/07/31 10:08:33;;;;;;;0.00;0.00;;;16.80;55.70;;;;;;5092739;28;20190;-51
2023/07/31 10:11:05;;;;;;;0.00;0.00;;;16.80;55.60;;;;;;5091735;28;20642;-59
2023/07/31 10:13:37;;;;;;;0.00;0.00;;;16.80;55.60;;;;;;5078795;28;20195;-56
2023/07/31 10:16:08;;;;;;;0.10;0.10;;;16.80;55.60;;;;;;5072358;28;20221;-61
2023/07/31 10:18:39;;;;;;;0.08;0.08;;;16.80;55.60;;;;;;5101556;28;20250;-48
2023/07/31 10:21:10;;;;;;;0.00;0.00;;;16.80;55.70;;;;;;5112572;28;20205;-58
2023/07/31 10:23:41;;;;;;;0.10;0.10;;;16.80;55.70;;;;;;5092427;28;20210;-51
2023/07/31 10:26:12;;;;;;;0.00;0.00;;;16.80;55.70;;;;;;5071877;28;20238;-59
2023/07/31 10:28:46;;;;;;;0.10;0.10;;;16.80;55.60;;;;;;5086654;28;20193;-63
2023/07/31 10:31:17;;;;;;;0.00;0.00;;;16.80;55.60;;;;;;5092128;28;20202;-50
2023/07/31 10:33:48;;;;;;;0.10;0.10;;;16.80;55.60;;;;;;5091380;28;20235;-50
2023/07/31 10:36:21;;;;;;;0.10;0.10;;;16.80;55.60;;;;;;5091536;28;20222;-57
2023/07/31 10:38:53;;;;;;;0.10;0.10;;;16.80;55.60;;;;;;5074970;28;20195;-48
2023/07/31 10:41:30;;;;;;;0.10;0.10;;;16.80;55.60;;;;;;5070810;28;20195;-49
2023/07/31 10:44:03;;;;;;;0.10;0.10;;;16.80;55.60;;;;;;5105200;28;20217;-61
2023/07/31 10:46:35;;;;;;;0.00;0.00;;;16.80;55.60;;;;;;5112053;28;20221;-53
2023/07/31 10:49:05;;;;;;;0.10;0.10;;;16.80;55.60;;;;;;5111570;28;20186;-52
2023/07/31 10:51:39;;;;;;;0.10;0.10;;;16.80;55.60;;;;;;5105069;28;20193;-58
2023/07/31 10:54:18;;;;;;;0.10;0.10;;;16.80;55.60;;;;;;5081789;28;20609;-56
2023/07/31 10:56:52;;;;;;;0.10;0.10;;;16.80;55.50;;;;;;5071564;28;20198;-58
2023/07/31 10:59:37;;;;;;;0.10;0.10;;;16.80;55.50;;;;;;5089605;28;20186;-48
2023/07/31 11:02:07;;;;;;;0.20;0.20;;;16.80;55.50;;;;;;5091732;28;20241;-61
2023/07/31 11:04:38;;;;;;;0.10;0.10;;;16.80;55.50;;;;;;5074785;28;20270;-49
2023/07/31 11:07:10;;;;;;;0.05;0.05;;;16.80;55.60;;;;;;5091496;28;20226;-49
2023/07/31 11:09:41;;;;;;;0.10;0.10;;;16.70;55.40;;;;;;5070056;28;20743;-47
2023/07/31 11:12:12;;;;;;;0.10;0.10;;;16.80;55.40;;;;;;5073072;28;20584;-49
2023/07/31 11:14:44;;;;;;;0.10;0.10;;;16.80;55.40;;;;;;5069618;28;20221;-48
2023/07/31 11:17:15;;;;;;;0.10;0.10;;;16.80;55.40;;;;;;5071379;28;20198;-51
2023/07/31 11:19:45;;;;;;;0.10;0.10;;;16.80;55.40;;;;;;5086767;28;20205;-57
2023/07/31 11:22:16;;;;;;;0.10;0.10;;;16.80;55.50;;;;;;5091354;28;20185;-57
2023/07/31 11:24:47;;;;;;;0.10;0.10;;;16.80;55.50;;;;;;5083301;28;20227;-53
2023/07/31 11:27:18;;;;;;;0.10;0.10;;;16.80;55.50;;;;;;5088865;28;20719;-57
2023/07/31 11:29:53;;;;;;;0.10;0.10;;;16.80;55.40;;;;;;5091890;28;20205;-53
2023/07/31 11:32:25;;;;;;;0.10;0.10;;;16.80;55.50;;;;;;5091854;28;20190;-60
2023/07/31 11:34:56;;;;;;;0.10;0.10;;;16.80;55.40;;;;;;5091552;28;20265;-58
2023/07/31 11:37:40;;;;;;;0.10;0.10;;;16.80;55.30;;;;;;5091435;28;20201;-56
2023/07/31 11:40:12;;;;;;;0.10;0.10;;;16.80;55.20;;;;;;5091315;28;20255;-60
2023/07/31 11:42:42;;;;;;;0.10;0.10;;;16.80;55.20;;;;;;5091909;28;20202;-55
2023/07/31 11:45:15;;;;;;;0.05;0.05;;;16.80;55.30;;;;;;5093037;28;20226;-58
2023/07/31 11:47:46;;;;;;;0.10;0.10;;;16.70;55.30;;;;;;5081305;28;20205;-56
2023/07/31 11:50:16;;;;;;;0.10;0.10;;;16.70;55.30;;;;;;5075214;28;20201;-52
2023/07/31 11:52:50;;;;;;;0.10;0.10;;;16.80;55.30;;;;;;5077450;28;20197;-48
2023/07/31 11:55:21;;;;;;;0.10;0.10;;;16.80;55.30;;;;;;5095254;28;20214;-51
2023/07/31 11:57:53;;;;;;;0.00;0.00;;;16.80;55.20;;;;;;5095850;28;20198;-52
2023/07/31 12:00:25;;;;;;;0.10;0.10;;;16.70;55.30;;;;;;5095331;28;20201;-49
2023/07/31 12:02:57;;;;;;;0.10;0.10;;;16.70;55.30;;;;;;5095483;28;20543;-54
2023/07/31 12:05:27;;;;;;;0.10;0.10;;;16.70;55.30;;;;;;5095180;28;20240;-49
2023/07/31 12:07:58;;;;;;;0.10;0.10;;;16.70;55.30;;;;;;5095187;28;20202;-49
2023/07/31 12:10:31;;;;;;;0.10;0.10;;;16.70;55.30;;;;;;5095004;28;20194;-50
2023/07/31 12:13:03;;;;;;;0.00;0.00;;;16.80;55.40;;;;;;5095335;28;20202;-60
2023/07/31 12:15:37;;;;;;;0.00;0.00;;;16.80;55.40;;;;;;5095310;28;20560;-57
2023/07/31 12:18:12;;;;;;;0.05;0.05;;;16.80;55.30;;;;;;5095043;28;20194;-60
2023/07/31 12:20:47;;;;;;;0.10;0.10;;;16.70;55.20;;;;;;5094768;28;20194;-57
2023/07/31 12:23:27;;;;;;;0.10;0.10;;;16.70;55.10;;;;;;5094693;28;20209;-58
2023/07/31 12:26:04;;;;;;;0.10;0.10;;;16.70;55.10;;;;;;5094627;28;20226;-60
2023/07/31 12:28:39;;;;;;;0.00;0.00;;;16.70;54.90;;;;;;5094812;28;20198;-55
2023/07/31 12:31:13;;;;;;;0.00;0.00;;;16.70;54.90;;;;;;5094655;28;20276;-54
2023/07/31 12:33:44;;;;;;;0.10;0.10;;;16.70;55.00;;;;;;5074567;28;20603;-59
2023/07/31 12:36:16;;;;;;;0.00;0.00;;;16.70;54.90;;;;;;5074543;28;20685;-51
2023/07/31 12:38:47;;;;;;;0.10;0.10;;;16.70;54.90;;;;;;5074350;28;20198;-56
2023/07/31 12:41:18;;;;;;;0.10;0.10;;;16.70;55.60;;;;;;5074046;28;20202;-53
2023/07/31 12:43:49;;;;;;;0.00;0.00;;;16.70;55.10;;;;;;5074215;28;20206;-52
2023/07/31 12:46:22;;;;;;;0.10;0.10;;;16.70;55.10;;;;;;5087023;28;20218;-59
2023/07/31 12:48:52;;;;;;;0.00;0.00;;;16.70;55.10;;;;;;5094874;28;20259;-54
2023/07/31 12:51:23;;;;;;;0.10;0.10;;;16.70;55.10;;;;;;5094450;28;20205;-51
2023/07/31 12:53:54;;;;;;;0.10;0.10;;;16.70;55.20;;;;;;5089252;28;20198;-54
2023/07/31 12:56:24;;;;;;;0.10;0.10;;;16.70;55.10;;;;;;5094191;28;20264;-60
2023/07/31 12:58:55;;;;;;;0.10;0.10;;;16.70;55.00;;;;;;5094505;28;20209;-50
2023/07/31 13:01:27;;;;;;;0.10;0.10;;;16.70;55.00;;;;;;5094610;28;20194;-47
2023/07/31 13:03:58;;;;;;;0.05;0.05;;;16.70;55.00;;;;;;5094436;28;20602;-53
2023/07/31 13:06:29;;;;;;;0.10;0.10;;;16.70;54.90;;;;;;5093929;28;20221;-51
2023/07/31 13:09:00;;;;;;;0.10;0.10;;;16.70;54.90;;;;;;5094313;28;20201;-62
2023/07/31 13:11:30;;;;;;;0.00;0.00;;;16.70;54.90;;;;;;5094180;28;20598;-51